Time;durP1;ratioP1;P1;durP2;ratioP2;P2;SDS_P1;SDS_P2;PMS_P1;PMS_P2;Temp;Humidity;BMP_temperature;BMP_pressure;BME280_temperature;BME280_humidity;BME280_pressure;Samples;Min_cycle;Max_cycle;Signal;HPM_P1;HPM_P2
2023/03/19 00:00:22;;;;;;;;;;;;;;;7.13;56.55;100325.06;4435741;32;33574;-79
2023/03/19 00:02:50;;;;;;;;;;;;;;;7.18;56.67;100321.09;4441954;32;32717;-79
2023/03/19 00:05:17;;;;;;;;;;;;;;;6.91;57.27;100326.97;4409120;32;32944;-76
2023/03/19 00:07:45;;;;;;;;;;;;;;;6.69;58.53;100322.94;4418143;32;33922;-78
2023/03/19 00:10:12;;;;;;;;;;;;;;;7.15;57.16;100317.44;4442516;32;34255;-79
2023/03/19 00:12:39;;;;;;;;;;;;;;;7.05;57.10;100315.91;4437660;32;33909;-75
2023/03/19 00:15:11;;;;;;;;;;;;;;;7.05;57.41;100311.66;4438611;32;32531;-78
2023/03/19 00:17:38;;;;;;;;;;;;;;;7.19;56.95;100307.44;4417473;32;33825;-77
2023/03/19 00:20:07;;;;;;;;;;;;;;;7.42;56.20;100313.22;4414670;32;33872;-79
2023/03/19 00:22:34;;;;;;;;;;;;;;;7.48;55.75;100308.44;4453968;32;35000;-78
2023/03/19 00:25:02;;;;;;;;;;;;;;;7.74;55.18;100304.94;4441279;32;31466;-77
2023/03/19 00:27:29;;;;;;;;;;;;;;;7.60;55.35;100309.22;4402755;32;34242;-75
2023/03/19 00:29:56;;;;;;;;;;;;;;;7.41;55.80;100301.09;4433581;32;34347;-76
2023/03/19 00:32:24;;;;;;;;;;;;;;;7.48;55.71;100303.28;4396610;32;34252;-77
2023/03/19 00:34:51;;;;;;;;;;;;;;;7.45;55.85;100298.81;4398507;32;32764;-78
2023/03/19 00:37:19;;;;;;;;;;;;;;;7.64;55.65;100302.59;4444008;32;34444;-76
2023/03/19 00:39:46;;;;;;;;;;;;;;;7.23;56.15;100291.37;4427273;32;34212;-75
2023/03/19 00:42:13;;;;;;;;;;;;;;;7.46;55.87;100305.75;4452992;32;34127;-76
2023/03/19 00:44:41;;;;;;;;;;;;;;;7.48;55.63;100288.72;4455012;32;33416;-76
2023/03/19 00:47:08;;;;;;;;;;;;;;;7.27;56.37;100288.19;4376772;32;33547;-78
2023/03/19 00:49:35;;;;;;;;;;;;;;;7.55;56.00;100289.09;4403623;32;33265;-75
2023/03/19 00:52:03;;;;;;;;;;;;;;;7.32;56.12;100285.03;4390693;32;33922;-77
2023/03/19 00:54:31;;;;;;;;;;;;;;;7.28;56.62;100284.84;4382909;32;33526;-75
2023/03/19 00:56:58;;;;;;;;;;;;;;;7.27;56.60;100288.19;4400039;32;33252;-76
2023/03/19 00:59:25;;;;;;;;;;;;;;;7.13;57.15;100290.66;4402914;32;34159;-76
2023/03/19 01:01:53;;;;;;;;;;;;;;;7.16;57.15;100288.28;4426817;32;34162;-75
2023/03/19 01:04:20;;;;;;;;;;;;;;;7.06;57.38;100291.94;4420180;32;34203;-75
2023/03/19 01:06:48;;;;;;;;;;;;;;;7.06;57.77;100290.25;4392690;32;34384;-76
2023/03/19 01:09:15;;;;;;;;;;;;;;;7.10;57.69;100293.94;4395977;32;34834;-75
2023/03/19 01:11:43;;;;;;;;;;;;;;;7.28;56.81;100295.16;4411843;32;34082;-77
2023/03/19 01:14:10;;;;;;;;;;;;;;;7.18;57.49;100295.31;4417202;32;33637;-76
2023/03/19 01:16:38;;;;;;;;;;;;;;;7.19;57.36;100294.53;4444635;32;33921;-77
2023/03/19 01:19:05;;;;;;;;;;;;;;;6.94;58.13;100307.47;4453013;32;34050;-77
2023/03/19 01:21:34;;;;;;;;;;;;;;;6.82;58.45;100302.41;4413723;32;34290;-78
2023/03/19 01:24:02;;;;;;;;;;;;;;;6.84;58.36;100299.94;4421253;32;33377;-75
2023/03/19 01:26:30;;;;;;;;;;;;;;;7.03;57.71;100291.72;4437403;32;33910;-75
2023/03/19 01:28:58;;;;;;;;;;;;;;;6.83;58.55;100296.44;4402760;32;33917;-75
2023/03/19 01:31:26;;;;;;;;;;;;;;;6.82;58.38;100302.41;4438718;32;33882;-78
2023/03/19 01:33:54;;;;;;;;;;;;;;;6.76;58.76;100301.97;4433459;32;33908;-77
2023/03/19 01:36:22;;;;;;;;;;;;;;;6.77;58.83;100297.72;4437465;32;34133;-75
2023/03/19 01:38:50;;;;;;;;;;;;;;;7.06;57.74;100286.78;4406451;32;34201;-77
2023/03/19 01:41:17;;;;;;;;;;;;;;;6.87;58.12;100295.84;4433568;32;33575;-77
2023/03/19 01:43:46;;;;;;;;;;;;;;;6.80;58.26;100288.53;4421967;32;33417;-75
2023/03/19 01:46:14;;;;;;;;;;;;;;;7.19;57.14;100289.38;4433394;32;33410;-78
2023/03/19 01:48:47;;;;;;;;;;;;;;;7.11;57.28;100289.66;4453862;32;33331;-78
2023/03/19 01:51:16;;;;;;;;;;;;;;;6.87;57.82;100295.84;4392692;32;34688;-75
2023/03/19 01:53:45;;;;;;;;;;;;;;;7.06;57.39;100291.94;4396785;32;33509;-78
2023/03/19 01:56:19;;;;;;;;;;;;;;;7.11;57.26;100295.72;4401726;32;34317;-75
2023/03/19 01:58:48;;;;;;;;;;;;;;;7.03;57.03;100291.72;4391120;32;33918;-78
2023/03/19 02:01:15;;;;;;;;;;;;;;;7.03;56.98;100291.72;4392040;32;33672;-75
2023/03/19 02:03:43;;;;;;;;;;;;;;;7.08;56.98;100290.34;4395341;32;33391;-77
2023/03/19 02:06:12;;;;;;;;;;;;;;;7.04;57.36;100288.37;4432130;32;34812;-79
2023/03/19 02:08:39;;;;;;;;;;;;;;;6.77;57.96;100296.03;4434961;32;34465;-79
2023/03/19 02:11:07;;;;;;;;;;;;;;;7.29;56.02;100281.47;4447822;32;33865;-79
2023/03/19 02:13:35;;;;;;;;;;;;;;;6.89;57.45;100281.44;4402397;32;33967;-76
2023/03/19 02:16:03;;;;;;;;;;;;;;;7.01;57.45;100275.28;4394704;32;34847;-78
2023/03/19 02:18:31;;;;;;;;;;;;;;;6.68;58.14;100287.66;4439604;32;33387;-77
2023/03/19 02:21:04;;;;;;;;;;;;;;;6.81;57.85;100287.72;4401985;32;34384;-79
2023/03/19 02:23:41;;;;;;;;;;;;;;;6.98;57.49;100278.56;4433899;32;32873;-77
2023/03/19 02:26:09;;;;;;;;;;;;;;;7.23;56.78;100281.06;4427896;32;34092;-75
2023/03/19 02:28:43;;;;;;;;;;;;;;;7.30;56.15;100272.03;4390846;32;34208;-77
2023/03/19 02:31:11;;;;;;;;;;;;;;;7.17;56.52;100275.50;4422478;32;34651;-76
2023/03/19 02:33:39;;;;;;;;;;;;;;;6.64;57.90;100271.13;4435889;32;34051;-78
2023/03/19 02:36:08;;;;;;;;;;;;;;;6.87;57.50;100270.09;4430401;32;34112;-78
2023/03/19 02:38:36;;;;;;;;;;;;;;;6.23;58.94;100270.87;4402074;32;33594;-76
2023/03/19 02:41:04;;;;;;;;;;;;;;;6.35;59.38;100270.81;4387877;32;34097;-76
2023/03/19 02:43:33;;;;;;;;;;;;;;;6.58;58.71;100269.81;4439863;32;34046;-77
2023/03/19 02:46:01;;;;;;;;;;;;;;;6.32;59.22;100260.31;4423614;32;34306;-78
2023/03/19 02:48:29;;;;;;;;;;;;;;;6.45;59.03;100262.94;4394801;32;35030;-77
2023/03/19 02:50:56;;;;;;;;;;;;;;;6.28;58.86;100269.53;4405537;32;34437;-78
2023/03/19 02:53:24;;;;;;;;;;;;;;;6.07;60.11;100267.22;4434096;32;34061;-77
2023/03/19 02:55:51;;;;;;;;;;;;;;;6.15;59.75;100265.19;4397014;32;34216;-77
2023/03/19 02:58:19;;;;;;;;;;;;;;;6.35;58.79;100266.56;4393196;32;34008;-76
2023/03/19 03:00:47;;;;;;;;;;;;;;;6.04;59.64;100272.16;4401108;32;33752;-75
2023/03/19 03:03:14;;;;;;;;;;;;;;;6.47;58.55;100267.44;4411380;32;33340;-78
2023/03/19 03:05:42;;;;;;;;;;;;;;;6.31;58.88;100269.72;4420529;32;33925;-78
2023/03/19 03:08:09;;;;;;;;;;;;;;;6.33;59.32;100274.97;4441730;32;34224;-78
2023/03/19 03:10:36;;;;;;;;;;;;;;;6.38;58.80;100266.78;4403627;32;34215;-75
2023/03/19 03:13:04;;;;;;;;;;;;;;;5.92;59.71;100276.41;4454825;32;33127;-78
2023/03/19 03:15:31;;;;;;;;;;;;;;;5.80;60.87;100271.28;4420209;32;34104;-77
2023/03/19 03:17:59;;;;;;;;;;;;;;;5.83;60.91;100268.03;4441508;32;34297;-78
2023/03/19 03:20:26;;;;;;;;;;;;;;;6.13;59.75;100273.59;4409364;32;34062;-78
2023/03/19 03:22:54;;;;;;;;;;;;;;;6.37;59.00;100279.53;4456076;32;33420;-77
2023/03/19 03:25:22;;;;;;;;;;;;;;;6.28;58.60;100275.56;4410290;32;34736;-75
2023/03/19 03:27:49;;;;;;;;;;;;;;;5.72;60.68;100272.44;4422228;32;33973;-77
2023/03/19 03:30:17;;;;;;;;;;;;;;;5.51;61.66;100271.78;4397265;32;34266;-76
2023/03/19 03:32:44;;;;;;;;;;;;;;;5.74;60.89;100273.44;4456300;32;34130;-76
2023/03/19 03:35:11;;;;;;;;;;;;;;;5.93;60.50;100274.72;4389890;32;33702;-75
2023/03/19 03:37:39;;;;;;;;;;;;;;;6.14;59.59;100275.38;4402255;32;34870;-75
2023/03/19 03:40:09;;;;;;;;;;;;;;;6.09;59.88;100278.53;4440758;32;34399;-75
2023/03/19 03:42:36;;;;;;;;;;;;;;;6.02;59.45;100273.72;4458969;32;34109;-78
2023/03/19 03:45:05;;;;;;;;;;;;;;;6.21;59.13;100272.44;4386380;32;34961;-76
2023/03/19 03:47:32;;;;;;;;;;;;;;;6.34;58.29;100276.78;4406934;32;34639;-78
2023/03/19 03:50:00;;;;;;;;;;;;;;;5.83;60.25;100268.03;4421784;32;32411;-78
2023/03/19 03:52:30;;;;;;;;;;;;;;;5.80;60.31;100272.97;4395067;32;33050;-78
2023/03/19 03:54:57;;;;;;;;;;;;;;;5.72;60.43;100272.44;4456042;32;34115;-77
2023/03/19 03:57:25;;;;;;;;;;;;;;;6.12;59.43;100284.66;4404298;32;33875;-76
2023/03/19 03:59:53;;;;;;;;;;;;;;;6.10;59.42;100282.91;4432014;32;34063;-76
2023/03/19 04:02:20;;;;;;;;;;;;;;;6.55;58.09;100274.75;4399012;32;33672;-76
2023/03/19 04:04:48;;;;;;;;;;;;;;;6.24;58.85;100282.97;4455948;32;34273;-78
2023/03/19 04:07:15;;;;;;;;;;;;;;;6.00;59.26;100283.00;4410229;32;34909;-75
2023/03/19 04:09:43;;;;;;;;;;;;;;;6.04;59.29;100287.56;4433289;32;33885;-75
2023/03/19 04:12:11;;;;;;;;;;;;;;;6.38;58.62;100283.91;4441616;32;32975;-76
2023/03/19 04:14:38;;;;;;;;;;;;;;;6.29;58.16;100284.16;4389652;32;33778;-75
2023/03/19 04:17:06;;;;;;;;;;;;;;;5.95;59.51;100279.25;4410872;32;34691;-78
2023/03/19 04:19:34;;;;;;;;;;;;;;;5.67;60.40;100266.06;4437800;32;34817;-75
2023/03/19 04:22:02;;;;;;;;;;;;;;;5.87;59.55;100255.53;4436901;32;33838;-78
2023/03/19 04:24:30;;;;;;;;;;;;;;;5.34;61.37;100256.81;4407207;32;34683;-78
2023/03/19 04:26:58;;;;;;;;;;;;;;;5.43;61.61;100253.25;4399782;32;34683;-76
2023/03/19 04:29:26;;;;;;;;;;;;;;;5.91;59.75;100254.06;4431432;32;34291;-75
2023/03/19 04:31:53;;;;;;;;;;;;;;;5.45;61.21;100248.22;4431989;32;33656;-77
2023/03/19 04:34:21;;;;;;;;;;;;;;;5.37;61.26;100249.31;4412099;32;34569;-76
2023/03/19 04:36:48;;;;;;;;;;;;;;;5.53;60.91;100251.34;4394006;32;34180;-76
2023/03/19 04:39:16;;;;;;;;;;;;;;;5.80;59.63;100247.28;4423952;32;34834;-77
2023/03/19 04:41:44;;;;;;;;;;;;;;;5.67;60.36;100250.63;4411175;32;33373;-78
2023/03/19 04:44:13;;;;;;;;;;;;;;;5.96;59.44;100256.97;4379124;32;33203;-75
2023/03/19 04:46:41;;;;;;;;;;;;;;;5.87;59.46;100264.88;4395994;32;34811;-76
2023/03/19 04:52:32;;;;;;;;;;;;;;;5.76;59.44;100276.12;4406569;32;33499;-76
2023/03/19 04:55:02;;;;;;;;;;;;;;;5.45;61.38;100281.63;4392492;32;34315;-77
2023/03/19 04:57:30;;;;;;;;;;;;;;;5.69;60.24;100275.66;4411640;32;34033;-76
2023/03/19 04:59:57;;;;;;;;;;;;;;;5.83;60.07;100270.59;4425054;32;34128;-76
2023/03/19 05:02:25;;;;;;;;;;;;;;;6.00;59.43;100280.44;4434003;32;33240;-78
2023/03/19 05:04:55;;;;;;;;;;;;;;;5.64;60.18;100277.03;4389262;32;33930;-76
2023/03/19 05:07:22;;;;;;;;;;;;;;;6.01;59.22;100289.94;4406844;32;33984;-79
2023/03/19 05:09:50;;;;;;;;;;;;;;;5.75;59.63;100289.75;4425459;32;34734;-77
2023/03/19 05:12:20;;;;;;;;;;;;;;;6.10;58.74;100285.47;4412634;32;33385;-77
2023/03/19 05:14:47;;;;;;;;;;;;;;;5.64;60.08;100281.25;4409121;32;33887;-76
2023/03/19 05:17:16;;;;;;;;;;;;;;;5.86;59.52;100288.84;4445981;32;34187;-77
2023/03/19 05:19:43;;;;;;;;;;;;;;;6.01;58.91;100291.63;4419390;32;33980;-74
2023/03/19 05:22:11;;;;;;;;;;;;;;;5.60;59.95;100290.44;4414287;32;34288;-76
2023/03/19 05:24:39;;;;;;;;;;;;;;;5.66;59.98;100290.88;4405654;32;33784;-77
2023/03/19 05:27:06;;;;;;;;;;;;;;;5.73;59.74;100294.75;4402655;32;33971;-76
2023/03/19 05:29:35;;;;;;;;;;;;;;;5.61;60.10;100286.19;4407741;32;33730;-77
2023/03/19 05:32:04;;;;;;;;;;;;;;;5.93;58.93;100297.84;4383547;32;33603;-78
2023/03/19 05:34:31;;;;;;;;;;;;;;;5.86;59.22;100299.13;4380864;32;34239;-77
2023/03/19 05:36:59;;;;;;;;;;;;;;;5.89;59.37;100305.37;4413974;32;33934;-78
2023/03/19 05:39:27;;;;;;;;;;;;;;;5.60;60.05;100303.28;4428642;32;34575;-78
2023/03/19 05:41:55;;;;;;;;;;;;;;;5.83;59.23;100293.75;4419644;32;33586;-75
2023/03/19 05:44:22;;;;;;;;;;;;;;;5.93;59.18;100296.22;4448429;32;34169;-78
2023/03/19 05:46:52;;;;;;;;;;;;;;;6.54;57.24;100293.56;4402947;32;33668;-76
2023/03/19 05:49:19;;;;;;;;;;;;;;;6.16;58.15;100296.94;4446327;32;34229;-76
2023/03/19 05:51:46;;;;;;;;;;;;;;;5.98;58.77;100289.72;4399873;32;34075;-76
2023/03/19 05:54:14;;;;;;;;;;;;;;;5.87;59.42;100288.03;4443479;32;34286;-77
2023/03/19 05:56:42;;;;;;;;;;;;;;;6.17;58.62;100301.31;4404302;32;34859;-76
2023/03/19 05:59:11;;;;;;;;;;;;;;;6.55;57.25;100295.34;4424776;32;32892;-77
2023/03/19 06:01:39;;;;;;;;;;;;;;;6.65;56.98;100297.78;4460832;32;33457;-77
2023/03/19 06:04:07;;;;;;;;;;;;;;;6.84;56.93;100305.97;4456980;32;33997;-78
2023/03/19 06:06:35;;;;;;;;;;;;;;;6.37;57.77;100301.00;4405822;32;34853;-75
2023/03/19 06:09:02;;;;;;;;;;;;;;;6.39;58.11;100299.44;4421320;32;34531;-75
2023/03/19 06:11:30;;;;;;;;;;;;;;;6.71;57.39;100303.34;4427572;32;33422;-76
2023/03/19 06:14:00;;;;;;;;;;;;;;;6.72;56.85;100305.09;4422143;32;34121;-75
2023/03/19 06:16:28;;;;;;;;;;;;;;;6.80;57.18;100313.34;4409629;32;33914;-77
2023/03/19 06:18:57;;;;;;;;;;;;;;;6.91;56.81;100316.66;4430763;32;33834;-78
2023/03/19 06:21:28;;;;;;;;;;;;;;;6.88;57.14;100317.38;4417988;32;32962;-77
2023/03/19 06:23:56;;;;;;;;;;;;;;;6.83;57.28;100324.75;4405409;32;34219;-78
2023/03/19 06:26:28;;;;;;;;;;;;;;;7.24;56.05;100323.19;4446790;32;34189;-76
2023/03/19 06:28:56;;;;;;;;;;;;;;;7.25;56.09;100320.72;4374932;32;34130;-78
2023/03/19 06:31:24;;;;;;;;;;;;;;;6.88;56.71;100320.81;4407463;32;34097;-78
2023/03/19 06:33:53;;;;;;;;;;;;;;;6.95;56.69;100328.97;4383834;32;34889;-76
2023/03/19 06:36:21;;;;;;;13.38;6.37;;;;;;;7.17;56.57;100342.50;4440910;32;32389;-77
2023/03/19 06:38:49;;;;;;;11.15;5.78;;;;;;;7.08;56.46;100336.72;4437926;32;33951;-77
2023/03/19 06:41:18;;;;;;;13.45;7.05;;;;;;;7.20;56.15;100324.66;4458825;32;33746;-76
2023/03/19 06:43:46;;;;;;;14.57;6.90;;;;;;;7.15;56.44;100336.34;4455717;32;33471;-79
2023/03/19 06:46:13;;;;;;;10.40;6.10;;;;;;;7.10;56.41;100340.28;4449673;32;34671;-76
2023/03/19 06:48:41;;;;;;;13.07;6.55;;;;;;;7.14;56.42;100337.12;4441276;32;33836;-77
2023/03/19 06:51:09;;;;;;;11.80;6.35;;;;;;;7.72;55.05;100326.28;4447981;32;33210;-78
2023/03/19 06:53:36;;;;;;;11.25;5.87;;;;;;;7.96;54.90;100329.53;4445519;32;34645;-79
2023/03/19 06:56:04;;;;;;;11.57;6.00;;;;;;;7.67;55.18;100319.16;4450490;32;33971;-76
2023/03/19 06:58:34;;;;;;;10.00;5.20;;;;;;;7.86;54.66;100328.06;4442284;32;33592;-76
2023/03/19 07:01:01;;;;;;;10.68;5.45;;;;;;;7.71;54.87;100324.50;4425868;32;33532;-81
2023/03/19 07:03:29;;;;;;;;;;;;;;;8.09;53.58;100321.78;4446921;32;33977;-76
2023/03/19 07:05:57;;;;;;;;;;;;;;;7.97;54.34;100327.06;4437894;32;33614;-76
2023/03/19 07:08:28;;;;;;;;;;;;;;;8.13;53.59;100320.28;4430166;32;33293;-76
2023/03/19 07:10:56;;;;;;;;;;;;;;;8.32;53.22;100319.75;4447634;32;33752;-78
2023/03/19 07:13:23;;;;;;;;;;;;;;;8.42;51.70;100316.97;4448091;32;34956;-77
2023/03/19 07:15:50;;;;;;;;;;;;;;;8.64;51.16;100320.06;4451358;32;34363;-76
2023/03/19 07:18:17;;;;;;;;;;;;;;;8.37;51.33;100318.34;4449916;32;34739;-77
2023/03/19 07:20:45;;;;;;;;;;;;;;;8.43;51.05;100322.22;4447245;32;32746;-75
2023/03/19 07:23:12;;;;;;;;;;;;;;;8.52;50.87;100328.75;4449281;32;33942;-76
2023/03/19 07:25:40;;;;;;;;;;;;;;;8.27;51.66;100322.94;4421673;32;34146;-83
2023/03/19 07:28:07;;;;;;;;;;;;;;;8.22;51.46;100319.16;4442790;32;34002;-81
2023/03/19 07:30:37;;;;;;;;;;;;;;;8.39;52.13;100325.37;4456743;32;33936;-80
2023/03/19 07:33:06;;;;;;;;;;;;;;;8.59;51.84;100333.50;4452144;32;34272;-77
2023/03/19 07:35:33;;;;;;;;;;;;;;;8.88;50.46;100331.78;4452826;32;34865;-78
2023/03/19 07:38:01;;;;;;;;;;;;;;;8.43;51.45;100327.38;4435781;32;34841;-78
2023/03/19 07:40:28;;;;;;;9.43;4.82;;;;;;;8.97;50.05;100330.62;4377705;32;32909;-76
2023/03/19 07:42:56;;;;;;;11.27;5.05;;;;;;;9.01;50.76;100331.72;4395256;32;33941;-77
2023/03/19 07:45:24;;;;;;;7.93;4.90;;;;;;;8.61;50.79;100329.31;4393522;32;34567;-78
2023/03/19 07:47:51;;;;;;;8.95;4.93;;;;;;;9.15;49.88;100325.66;4380075;32;34283;-78
2023/03/19 07:50:19;;;;;;;;;;;;;;;9.35;49.11;100323.34;4382320;32;33345;-77
2023/03/19 07:52:47;;;;;;;;;;;;;;;9.44;49.59;100323.88;4398402;32;33981;-77
2023/03/19 07:55:14;;;;;;;;;;;;;;;9.40;49.02;100311.59;4373034;32;34259;-79
2023/03/19 07:57:42;;;;;;;;;;;;;;;9.33;50.12;100320.69;4394540;32;33743;-79
2023/03/19 08:00:09;;;;;;;;;;;;;;;9.78;47.75;100311.16;4380850;32;33603;-77
2023/03/19 08:02:39;;;;;;;;;;;;;;;9.43;50.41;100316.94;4394707;32;33734;-79
2023/03/19 08:05:07;;;;;;;;;;;;;;;9.76;47.44;100317.06;4371248;32;33368;-76
2023/03/19 08:07:34;;;;;;;;;;;;;;;10.05;47.62;100310.94;4394273;32;34234;-77
2023/03/19 08:10:03;;;;;;;;;;;;;;;9.62;48.39;100304.25;4378994;32;33788;-77
2023/03/19 08:12:31;;;;;;;;;;;;;;;9.90;47.80;100305.78;4380010;32;33728;-79
2023/03/19 08:14:58;;;;;;;;;;;;;;;10.36;47.43;100305.75;4396466;32;33628;-79
2023/03/19 08:17:26;;;;;;;;;;;;;;;10.28;45.30;100304.41;4379330;32;32794;-80
2023/03/19 08:19:53;;;;;;;;;;;;;;;10.31;45.96;100298.53;4395953;32;32971;-79
2023/03/19 08:22:20;;;;;;;;;;;;;;;10.78;45.35;100301.03;4402010;32;34959;-82
2023/03/19 08:24:48;;;;;;;;;;;;;;;10.99;44.54;100297.75;4392144;32;34243;-78
2023/03/19 08:27:15;;;;;;;;;;;;;;;11.12;44.83;100294.97;4364118;32;33659;-80
2023/03/19 08:29:42;;;;;;;;;;;;;;;11.12;44.01;100300.16;4367177;32;31500;-79
2023/03/19 08:32:10;;;;;;;;;;;;;;;11.28;44.72;100290.56;4403620;32;34063;-80
2023/03/19 08:34:37;;;;;;;;;;;;;;;11.32;42.78;100297.66;4413715;32;34212;-81
2023/03/19 08:37:04;;;;;;;;;;;;;;;11.74;42.72;100298.00;4386643;32;188144;-82
2023/03/19 08:39:32;;;;;;;;;;;;;;;12.00;43.36;100302.75;4417911;32;33410;-76
2023/03/19 08:41:59;;;;;;;;;;;;;;;12.63;40.65;100299.53;4390734;32;34129;-78
2023/03/19 08:44:27;;;;;;;;;;;;;;;13.16;39.80;100295.78;4418697;32;33542;-80
2023/03/19 08:46:54;;;;;;;;;;;;;;;13.62;38.47;100288.09;4423306;32;34715;-83
2023/03/19 08:49:21;;;;;;;;;;;;;;;13.03;40.14;100283.06;4403319;32;33193;-81
2023/03/19 08:51:49;;;;;;;;;;;;;;;12.81;38.91;100283.88;4415487;32;32655;-78
2023/03/19 08:54:17;;;;;;;;;;;;;;;13.82;38.02;100284.59;4429217;32;34057;-80
2023/03/19 08:56:45;;;;;;;;;;;;;;;13.94;37.70;100284.19;4414828;32;34740;-80
2023/03/19 08:59:12;;;;;;;;;;;;;;;13.34;39.00;100279.19;4391704;32;33121;-81
2023/03/19 09:01:40;;;;;;;;;;;;;;;13.38;37.83;100278.47;4389637;32;35018;-77
2023/03/19 09:04:08;;;;;;;;;;;;;;;13.59;37.87;100281.06;4386940;32;34142;-80
2023/03/19 09:06:35;;;;;;;;;;;;;;;13.34;38.08;100277.47;4425321;32;34306;-80
2023/03/19 09:09:02;;;;;;;;;;;;;;;13.85;36.46;100274.31;4427050;32;33581;-80
2023/03/19 09:11:30;;;;;;;;;;;;;;;13.68;36.32;100280.56;4419577;32;33894;-81
2023/03/19 09:13:57;;;;;;;;;;;;;;;14.01;36.73;100274.91;4392756;32;35005;-80
2023/03/19 09:16:25;;;;;;;;;;;;;;;14.51;35.53;100268.09;4446812;32;33993;-81
2023/03/19 09:18:52;;;;;;;;;;;;;;;14.16;36.14;100270.28;4404056;32;33430;-77
2023/03/19 09:21:20;;;;;;;;;;;;;;;14.45;35.39;100267.87;4369586;32;34946;-77
2023/03/19 09:23:47;;;;;;;;;;;;;;;14.18;35.65;100273.84;4400746;32;33987;-77
2023/03/19 09:26:15;;;;;;;;;;;;;;;14.29;35.75;100272.53;4379905;32;35025;-80
2023/03/19 09:28:42;;;;;;;;;;;;;;;14.57;34.82;100262.25;4403357;32;33904;-79
2023/03/19 09:31:10;;;;;;;;;;;;;;;14.50;36.95;100261.09;4400158;32;34201;-83
2023/03/19 09:33:37;;;;;;;;;;;;;;;14.85;35.50;100254.53;4382156;32;34121;-78
2023/03/19 09:36:05;;;;;;;;;;;;;;;14.91;34.56;100260.00;4381879;32;34146;-79
2023/03/19 09:38:32;;;;;;;;;;;;;;;15.45;34.46;100259.19;4383080;32;34334;-80
2023/03/19 09:41:15;;;;;;;;;;;;;;;15.41;33.43;100252.06;4405673;32;34480;-80
2023/03/19 09:44:01;;;;;;;;;;;;;;;16.00;32.70;100246.97;4392748;32;33833;-79
2023/03/19 09:46:47;;;;;;;;;;;;;;;16.28;32.52;100235.59;4399619;32;34169;-77
2023/03/19 09:49:15;;;;;;;;;;;;;;;16.20;32.02;100238.84;4443908;32;33082;-79
2023/03/19 09:51:42;;;;;;;;;;;;;;;16.11;31.46;100242.06;4411618;32;33995;-77
2023/03/19 09:54:26;;;;;;;;;;;;;;;16.49;31.83;100232.69;4441952;32;33967;-79
2023/03/19 09:56:54;;;;;;;;;;;;;;;16.78;31.21;100236.94;4418946;32;34126;-80
2023/03/19 09:59:22;;;;;;;;;;;;;;;17.02;30.76;100242.88;4428153;32;33344;-76
2023/03/19 10:01:52;;;;;;;;;;;;;;;16.75;30.31;100242.12;4438888;32;35070;-78
2023/03/19 10:04:32;;;;;;;;;;;;;;;16.98;32.07;100241.03;4427952;32;33214;-80
2023/03/19 10:07:06;;;;;;;;;;;;;;;17.47;29.86;100234.38;4416255;32;34289;-82
2023/03/19 10:09:33;;;;;;;;;;;;;;;17.43;30.37;100237.75;4431724;32;34145;-77
2023/03/19 10:12:13;;;;;;;;;;;;;;;17.64;29.71;100233.87;4419605;32;34139;-80
2023/03/19 10:14:41;;;;;;;;;;;;;;;17.38;30.00;100231.50;4407217;32;34220;-82
2023/03/19 10:17:14;;;;;;;;;;;;;;;17.55;29.66;100233.66;4432938;32;34818;-77
2023/03/19 10:19:46;;;;;;;;;;;;;;;17.60;30.20;100235.53;4426777;32;34128;-81
2023/03/19 10:22:15;;;;;;;;;;;;;;;17.26;29.89;100234.72;4419495;32;34716;-79
2023/03/19 10:24:43;;;;;;;;;;;;;;;17.55;29.25;100228.44;4422216;32;33857;-80
2023/03/19 10:27:12;;;;;;;;;;;;;;;17.67;30.61;100233.94;4419245;32;34021;-80
2023/03/19 10:29:40;;;;;;;;;;;;;;;17.87;28.80;100227.47;4413579;32;33341;-80
2023/03/19 10:32:18;;;;;;;;;;;;;;;17.37;29.05;100221.91;4419493;32;34119;-80
2023/03/19 10:34:47;;;;;;;;;;;;;;;17.90;28.64;100215.28;4423664;32;33731;-81
2023/03/19 10:37:16;;;;;;;;;;;;;;;17.93;28.76;100215.34;4425639;32;34398;-81
2023/03/19 10:39:44;;;;;;;;;;;;;;;18.28;29.06;100211.69;4435402;32;31810;-79
2023/03/19 10:42:30;;;;;;;;;;;;;;;18.35;28.52;100199.63;4416347;32;33771;-78
2023/03/19 10:45:14;;;;;;;;;;;;;;;18.40;28.89;100197.94;4404605;32;33876;-81
2023/03/19 10:47:41;;;;;;;;;;;;;;;18.91;27.40;100190.16;4379665;32;34141;-81
2023/03/19 10:50:16;;;;;;;;;;;;;;;18.73;28.87;100186.31;4378210;32;33080;-82
2023/03/19 10:52:45;;;;;;;;;;;;;;;18.73;27.56;100180.19;4443134;32;33760;-82
2023/03/19 10:55:13;;;;;;;;;;;;;;;18.30;28.45;100180.28;4452710;32;34949;-81
2023/03/19 10:57:42;;;;;;;;;;;;;;;18.13;28.01;100177.31;4452527;32;34824;-79
2023/03/19 11:00:17;;;;;;;;;;;;;;;18.37;27.35;100182.16;4452631;32;33161;-79
2023/03/19 11:02:48;;;;;;;;;;;;;;;18.73;27.39;100178.44;4437324;32;35093;-81
2023/03/19 11:05:28;;;;;;;;;;;;;;;19.31;28.08;100175.91;4467278;32;34402;-80
2023/03/19 11:07:58;;;;;;;;;;;;;;;18.84;28.27;100158.53;4467756;32;34187;-82
2023/03/19 11:10:26;;;;;;;;;;;;;;;18.98;27.58;100158.78;4468016;32;34400;-78
2023/03/19 11:12:54;;;;;;;;;;;;;;;19.39;26.14;100153.31;4437363;32;35058;-79
2023/03/19 11:15:23;;;;;;;;;;;;;;;19.34;26.92;100149.72;4443723;32;33880;-78
2023/03/19 11:17:57;;;;;;;;;;;;;;;19.22;26.86;100154.78;4467055;32;34955;-78
2023/03/19 11:20:32;;;;;;;;;;;;;;;19.23;26.23;100135.53;4467793;32;33151;-79
2023/03/19 11:23:02;;;;;;;;;;;;;;;19.38;26.89;100135.75;4465761;32;34992;-78
2023/03/19 11:25:42;;;;;;;;;;;;;;;19.24;26.91;100134.69;4448262;32;34250;-78
2023/03/19 11:28:14;;;;;;;;;;;;;;;19.78;26.62;100133.72;4452593;32;34334;-76
2023/03/19 11:31:03;;;;;;;5.93;3.60;;;;;;;20.06;26.06;100126.16;4401768;32;33259;-82
2023/03/19 11:33:40;;;;;;;;;;;;;;;20.48;24.78;100126.59;4414386;32;33645;-79
2023/03/19 11:36:08;;;;;;;;;;;;;;;20.13;25.38;100117.47;4381819;32;33608;-78
2023/03/19 11:38:41;;;;;;;;;;;;;;;19.84;25.07;100125.91;4392597;32;33286;-78
2023/03/19 11:41:15;;;;;;;;;;;;;;;20.16;25.20;100120.09;4389947;32;33396;-80
2023/03/19 11:43:45;;;;;;;;;;;;;;;20.67;24.12;100119.75;4408049;32;33835;-83
2023/03/19 11:46:19;;;;;;;;;;;;;;;20.51;24.71;100122.22;4405076;32;34206;-79
2023/03/19 11:49:12;;;;;;;7.82;4.05;;;;;;;19.60;26.72;100115.91;4389967;32;34047;-78
2023/03/19 11:52:02;;;;;;;7.97;4.18;;;;;;;19.10;25.96;100117.81;4415924;32;32969;-79
2023/03/19 11:54:32;;;;;;;;;;;;;;;19.54;26.49;100114.94;4398444;32;33985;-80
2023/03/19 11:57:03;;;;;;;;;;;;;;;20.51;25.01;100113.44;4400971;32;34879;-82
2023/03/19 11:59:49;;;;;;;;;;;;;;;20.53;25.40;100104.72;4379474;32;34065;-78
2023/03/19 12:02:23;;;;;;;;;;;;;;;19.78;26.03;100099.53;4413381;32;33033;-78
2023/03/19 12:04:53;;;;;;;;;;;;;;;19.37;26.69;100096.31;4423128;32;34163;-79
2023/03/19 12:07:29;;;;;;;;;;;;;;;20.30;26.37;100100.97;4380305;32;34830;-79
2023/03/19 12:09:57;;;;;;;;;;;;;;;20.23;25.91;100085.13;4414844;32;33601;-78
2023/03/19 12:12:33;;;;;;;;;;;;;;;20.58;24.99;100094.22;4413752;32;33220;-76
2023/03/19 12:15:19;;;;;;;;;;;;;;;20.67;24.22;100088.16;4428138;32;34264;-80
2023/03/19 12:17:58;;;;;;;;;;;;;;;20.71;24.82;100079.47;4400184;32;34229;-77
2023/03/19 12:20:57;;;;;;;7.25;4.32;;;;;;;21.16;24.71;100068.34;4404944;32;34703;-79
2023/03/19 12:23:50;;;;;;;9.02;3.75;;;;;;;21.29;23.91;100057.91;4377222;32;33507;-79
2023/03/19 12:26:37;;;;;;;;;;;;;;;20.06;24.61;100057.78;4402728;32;32918;-79
2023/03/19 12:29:10;;;;;;;;;;;;;;;19.34;26.40;100063.03;4388966;32;35337;-77
2023/03/19 12:31:41;;;;;;;;;;;;;;;19.09;26.83;100069.69;4383885;32;34747;-80
2023/03/19 12:34:09;;;;;;;;;;;;;;;19.64;26.19;100059.00;4376057;32;34042;-77
2023/03/19 12:36:38;;;;;;;;;;;;;;;20.09;25.76;100049.94;4394069;32;33529;-78
2023/03/19 12:39:08;;;;;;;;;;;;;;;19.99;25.87;100055.94;4389552;32;34053;-78
2023/03/19 12:41:37;;;;;;;;;;;;;;;20.56;25.19;100044.19;4381296;32;33998;-83
2023/03/19 12:44:21;;;;;;;;;;;;;;;20.92;24.27;100048.00;4385930;32;33768;-78
2023/03/19 12:46:53;;;;;;;;;;;;;;;20.84;24.51;100043.56;4377891;32;33954;-83
2023/03/19 12:49:46;;;;;;;;;;;;;;;20.18;25.60;100041.22;4402282;32;34019;-75
2023/03/19 12:52:25;;;;;;;6.85;4.37;;;;;;;20.15;26.53;100031.56;4371930;32;34029;-76